createdAt,value
2023-03-28T00:01:44.551Z,13.67
2023-03-28T00:04:13.962Z,17.97
2023-03-28T00:06:45.517Z,12.43
2023-03-28T00:09:13.468Z,11.47
2023-03-28T00:11:41.523Z,14.17
2023-03-28T00:14:10.025Z,14.80
2023-03-28T00:16:40.396Z,18.27
2023-03-28T00:19:10.228Z,16.70
2023-03-28T00:21:42.929Z,14.73
2023-03-28T00:24:13.733Z,17.07
2023-03-28T00:26:43.265Z,12.27
2023-03-28T00:29:15.805Z,12.07
2023-03-28T00:31:44.122Z,15.83
2023-03-28T00:34:12.358Z,10.83
2023-03-28T00:36:42.666Z,9.37
2023-03-28T00:39:11.552Z,9.00
2023-03-28T00:41:41.594Z,11.67
2023-03-28T00:44:44.180Z,15.53
2023-03-28T00:47:26.555Z,10.87
2023-03-28T00:49:58.742Z,13.00
2023-03-28T00:52:30.652Z,15.57
2023-03-28T00:55:00.505Z,9.83
2023-03-28T00:57:29.793Z,7.63
2023-03-28T00:59:57.935Z,10.33
2023-03-28T01:02:26.033Z,9.90
2023-03-28T01:04:59.938Z,9.00
2023-03-28T01:07:36.206Z,10.50
2023-03-28T01:10:05.813Z,7.70
2023-03-28T01:12:34.434Z,8.87
2023-03-28T01:15:05.253Z,8.87
2023-03-28T01:17:46.328Z,6.40
2023-03-28T01:20:27.552Z,9.87
2023-03-28T01:23:43.109Z,9.40
2023-03-28T01:26:48.605Z,9.93
2023-03-28T01:30:01.616Z,10.23
2023-03-28T01:33:05.110Z,12.90
2023-03-28T01:36:34.677Z,8.83
2023-03-28T01:39:14.310Z,8.17
2023-03-28T01:41:48.299Z,11.27
2023-03-28T01:44:27.734Z,7.07
2023-03-28T01:47:03.229Z,11.20
2023-03-28T01:49:37.260Z,12.70
2023-03-28T01:52:15.664Z,14.70
2023-03-28T01:54:52.627Z,14.03
2023-03-28T01:57:25.879Z,13.93
2023-03-28T02:00:01.887Z,10.97
2023-03-28T02:02:39.064Z,19.43
2023-03-28T02:05:35.900Z,17.27
2023-03-28T02:08:09.095Z,17.13
2023-03-28T02:10:54.753Z,11.07
2023-03-28T02:13:50.397Z,14.43
2023-03-28T02:16:46.877Z,12.93
2023-03-28T02:19:51.092Z,13.40
2023-03-28T02:22:43.470Z,14.87
2023-03-28T02:25:31.817Z,19.67
2023-03-28T02:28:20.959Z,19.70
2023-03-28T02:31:08.672Z,14.27
2023-03-28T02:33:39.711Z,17.67
2023-03-28T02:36:31.417Z,14.83
2023-03-28T02:39:14.084Z,16.20
2023-03-28T02:41:53.711Z,20.10
2023-03-28T02:44:39.522Z,19.70
2023-03-28T02:47:17.774Z,16.77
2023-03-28T02:49:54.375Z,18.07
2023-03-28T02:52:35.145Z,18.13
2023-03-28T02:55:14.303Z,16.33
2023-03-28T02:57:59.535Z,21.70
2023-03-28T03:00:29.875Z,18.77
2023-03-28T03:02:58.610Z,15.73
2023-03-28T03:05:26.676Z,20.70
2023-03-28T03:07:54.602Z,16.70
2023-03-28T03:10:24.637Z,23.00
2023-03-28T03:12:52.835Z,21.83
2023-03-28T03:15:21.461Z,21.17
2023-03-28T03:17:51.116Z,23.73
2023-03-28T03:20:26.193Z,21.13
2023-03-28T03:22:55.523Z,22.30
2023-03-28T03:25:23.835Z,17.63
2023-03-28T03:28:09.224Z,20.03
2023-03-28T03:30:37.178Z,22.70
2023-03-28T03:33:22.518Z,21.33
2023-03-28T03:35:59.441Z,24.80
2023-03-28T03:38:27.773Z,21.93
2023-03-28T03:40:55.757Z,24.30
2023-03-28T03:43:24.573Z,25.27
2023-03-28T03:45:52.619Z,27.40
2023-03-28T03:48:22.007Z,27.70
2023-03-28T03:50:55.998Z,26.77
2023-03-28T03:53:24.145Z,28.20
2023-03-28T03:56:02.044Z,30.07
2023-03-28T03:58:37.094Z,31.43
2023-03-28T04:01:09.942Z,32.37
2023-03-28T04:03:39.860Z,28.83
2023-03-28T04:06:08.634Z,22.50
2023-03-28T04:08:37.596Z,22.63
2023-03-28T04:11:07.837Z,21.77
2023-03-28T04:13:40.322Z,25.37
2023-03-28T04:16:09.473Z,21.20
2023-03-28T04:18:45.657Z,20.47
2023-03-28T04:21:13.649Z,20.10
2023-03-28T04:23:44.444Z,23.60
2023-03-28T04:26:27.119Z,26.70
2023-03-28T04:29:04.457Z,22.20
2023-03-28T04:31:36.128Z,21.87
2023-03-28T04:34:39.075Z,23.37
2023-03-28T04:37:15.280Z,20.80
2023-03-28T04:39:54.064Z,21.90
2023-03-28T04:42:42.746Z,22.10
2023-03-28T04:45:29.353Z,21.87
2023-03-28T04:48:02.768Z,26.60
2023-03-28T04:50:34.438Z,28.30
2023-03-28T04:53:03.811Z,26.30
2023-03-28T04:55:31.899Z,25.87
2023-03-28T04:58:03.448Z,27.37
2023-03-28T05:00:31.594Z,25.43
2023-03-28T05:03:05.631Z,20.50
2023-03-28T05:05:48.213Z,22.27
2023-03-28T05:08:18.805Z,27.17
2023-03-28T05:10:47.369Z,21.23
2023-03-28T05:13:16.964Z,23.20
2023-03-28T05:15:53.613Z,26.27
2023-03-28T05:18:40.721Z,26.00
2023-03-28T05:21:10.592Z,20.33
2023-03-28T05:23:39.016Z,21.07
2023-03-28T05:26:16.333Z,23.20
2023-03-28T05:28:44.650Z,19.47
2023-03-28T05:31:12.966Z,23.23
2023-03-28T05:33:41.119Z,19.70
2023-03-28T05:36:11.585Z,20.47
2023-03-28T05:38:39.681Z,18.73
2023-03-28T05:41:14.972Z,21.37
2023-03-28T05:43:44.139Z,18.90
2023-03-28T05:46:20.676Z,22.63
2023-03-28T05:48:49.920Z,21.03
2023-03-28T05:51:20.428Z,22.03
2023-03-28T05:53:48.427Z,23.73
2023-03-28T05:56:16.414Z,21.10
2023-03-28T05:58:44.433Z,19.60
2023-03-28T06:01:12.809Z,22.30
2023-03-28T06:03:42.590Z,25.03
2023-03-28T06:06:10.682Z,25.47
2023-03-28T06:08:40.428Z,28.00
2023-03-28T06:11:09.243Z,27.77
2023-03-28T06:13:52.188Z,27.33
2023-03-28T06:16:30.506Z,29.10
2023-03-28T06:19:14.478Z,27.60
2023-03-28T06:21:49.995Z,20.40
2023-03-28T06:24:19.450Z,24.73
2023-03-28T06:26:48.276Z,29.63
2023-03-28T06:29:19.961Z,25.30
2023-03-28T06:31:50.137Z,26.50
2023-03-28T06:34:19.741Z,23.40
2023-03-28T06:36:59.756Z,24.60
2023-03-28T06:39:34.030Z,23.10
2023-03-28T06:42:03.541Z,25.57
2023-03-28T06:44:40.722Z,21.63
2023-03-28T06:47:27.163Z,23.93
2023-03-28T06:49:55.417Z,28.93
2023-03-28T06:52:33.021Z,25.30
2023-03-28T06:55:03.753Z,25.27
2023-03-28T06:57:32.631Z,23.13
2023-03-28T07:00:12.677Z,32.27
2023-03-28T07:03:03.403Z,28.33
2023-03-28T07:05:31.989Z,25.90
2023-03-28T07:08:00.716Z,25.17
2023-03-28T07:10:30.390Z,26.03
2023-03-28T07:12:58.418Z,28.67
2023-03-28T07:15:26.621Z,32.33
2023-03-28T07:17:54.968Z,24.23
2023-03-28T07:20:23.334Z,23.70
2023-03-28T07:22:53.052Z,22.47
2023-03-28T07:25:21.358Z,23.23
2023-03-28T07:27:50.797Z,24.57
2023-03-28T07:30:18.798Z,22.40
2023-03-28T07:32:56.211Z,25.27
2023-03-28T07:35:31.724Z,24.17
2023-03-28T07:37:59.821Z,26.33
2023-03-28T07:40:35.086Z,31.53
2023-03-28T07:43:04.731Z,28.07
2023-03-28T07:45:32.810Z,32.27
2023-03-28T07:48:00.948Z,28.67
2023-03-28T07:50:29.134Z,23.70
2023-03-28T07:52:57.874Z,22.10
2023-03-28T07:55:28.333Z,22.23
2023-03-28T07:57:56.567Z,20.47
2023-03-28T08:00:34.053Z,20.57
2023-03-28T08:03:23.507Z,23.47
2023-03-28T08:05:52.442Z,21.87
2023-03-28T08:08:22.560Z,15.57
2023-03-28T08:11:07.816Z,22.23
2023-03-28T08:13:35.962Z,16.40
2023-03-28T08:16:11.660Z,14.97
2023-03-28T08:18:40.840Z,19.00
2023-03-28T08:21:09.119Z,17.40
2023-03-28T08:23:37.374Z,19.00
2023-03-28T08:26:25.972Z,16.47
2023-03-28T08:28:58.836Z,14.47
2023-03-28T08:31:30.995Z,13.93
2023-03-28T08:34:10.786Z,10.70
2023-03-28T08:36:42.361Z,8.93
2023-03-28T08:39:22.446Z,7.33
2023-03-28T08:42:29.246Z,9.47
2023-03-28T08:45:20.755Z,7.53
2023-03-28T08:47:59.424Z,6.37
2023-03-28T08:50:32.542Z,9.03
2023-03-28T08:53:01.529Z,5.90
2023-03-28T08:55:34.402Z,8.47
2023-03-28T08:58:03.690Z,8.87
2023-03-28T09:00:33.155Z,9.10
2023-03-28T09:03:02.640Z,10.23
2023-03-28T09:05:42.059Z,11.07
2023-03-28T09:08:29.075Z,8.77
2023-03-28T09:11:04.120Z,12.70
2023-03-28T09:13:40.805Z,12.60
2023-03-28T09:16:24.318Z,13.67
2023-03-28T09:19:37.066Z,15.20
2023-03-28T09:22:41.634Z,14.73
2023-03-28T09:25:21.873Z,14.63
2023-03-28T09:27:57.681Z,17.40
2023-03-28T09:30:30.194Z,16.57
2023-03-28T09:33:01.283Z,14.93
2023-03-28T09:35:32.847Z,16.17
2023-03-28T09:38:05.352Z,19.47
2023-03-28T09:40:36.540Z,19.50
2023-03-28T09:43:26.500Z,18.10
2023-03-28T09:46:19.464Z,19.10
2023-03-28T09:48:59.276Z,17.30
2023-03-28T09:51:33.385Z,22.27
2023-03-28T09:54:06.389Z,19.07
2023-03-28T09:56:37.726Z,19.77
2023-03-28T09:59:44.144Z,17.37
2023-03-28T10:02:29.078Z,13.43
2023-03-28T10:05:00.474Z,15.27
2023-03-28T10:07:42.456Z,12.10
2023-03-28T10:10:41.155Z,12.00
2023-03-28T10:13:14.033Z,11.30
2023-03-28T10:15:48.107Z,9.97
2023-03-28T10:18:35.341Z,10.70
2023-03-28T10:21:33.040Z,7.83
2023-03-28T10:24:15.950Z,8.93
2023-03-28T10:26:49.836Z,8.07
2023-03-28T10:29:18.432Z,10.40
2023-03-28T10:31:49.849Z,10.60
2023-03-28T10:34:40.886Z,6.87
2023-03-28T10:37:25.256Z,7.30
2023-03-28T10:40:27.397Z,5.90
2023-03-28T10:43:15.757Z,6.93
2023-03-28T10:46:11.471Z,6.93
2023-03-28T10:48:59.552Z,7.03
2023-03-28T10:51:32.597Z,7.80
2023-03-28T10:54:36.261Z,6.30
2023-03-28T10:57:14.884Z,8.57
2023-03-28T10:59:55.909Z,6.47
2023-03-28T11:02:43.412Z,5.73
2023-03-28T11:05:31.902Z,6.50
2023-03-28T11:08:13.912Z,6.97
2023-03-28T11:11:05.009Z,3.93
2023-03-28T11:13:47.714Z,5.40
2023-03-28T11:16:22.883Z,4.93
2023-03-28T11:19:38.872Z,5.03
2023-03-28T11:22:15.735Z,5.03
2023-03-28T11:24:55.224Z,5.03
2023-03-28T11:27:55.447Z,4.63
2023-03-28T11:30:49.814Z,3.83
2023-03-28T11:33:54.234Z,6.23
2023-03-28T11:36:30.096Z,8.93
2023-03-28T11:39:02.281Z,4.10
2023-03-28T11:41:34.565Z,5.97
2023-03-28T11:44:17.283Z,5.63
2023-03-28T11:46:53.575Z,5.27
2023-03-28T11:49:25.103Z,7.20
2023-03-28T11:52:01.945Z,7.37
2023-03-28T11:54:36.560Z,3.50
2023-03-28T11:57:09.785Z,3.90
2023-03-28T11:59:50.509Z,4.53
2023-03-28T12:02:36.501Z,3.60
2023-03-28T12:05:10.850Z,5.07
2023-03-28T12:07:44.229Z,4.90
2023-03-28T12:10:36.100Z,3.97
2023-03-28T12:13:14.281Z,3.50
2023-03-28T12:16:02.492Z,4.37
2023-03-28T12:18:35.692Z,10.23
2023-03-28T12:21:13.714Z,4.10
2023-03-28T12:23:59.461Z,3.60
2023-03-28T12:26:43.558Z,3.97
2023-03-28T12:29:18.507Z,3.37
2023-03-28T12:31:52.831Z,5.13
2023-03-28T12:34:32.563Z,3.83
2023-03-28T12:37:25.080Z,3.90
2023-03-28T12:39:59.816Z,2.80
2023-03-28T12:42:31.872Z,5.87
2023-03-28T12:45:02.836Z,3.40
2023-03-28T12:47:35.403Z,4.83
2023-03-28T12:50:09.001Z,4.00
2023-03-28T12:52:41.980Z,2.90
2023-03-28T12:55:41.972Z,4.03
2023-03-28T12:58:25.554Z,4.07
2023-03-28T13:01:36.562Z,5.20
2023-03-28T13:04:32.747Z,3.73
2023-03-28T13:07:18.680Z,5.90
2023-03-28T13:09:54.720Z,2.97
2023-03-28T13:12:32.352Z,3.33
2023-03-28T13:15:02.818Z,4.93
2023-03-28T13:17:34.103Z,5.00
2023-03-28T13:20:26.788Z,5.10
2023-03-28T13:23:00.511Z,6.47
2023-03-28T13:25:32.192Z,3.33
2023-03-28T13:28:02.230Z,2.63
2023-03-28T13:30:32.222Z,3.90
2023-03-28T13:33:03.348Z,5.77
2023-03-28T13:35:45.662Z,5.67
2023-03-28T13:38:24.828Z,6.07
2023-03-28T13:40:55.865Z,4.67
2023-03-28T13:43:26.060Z,4.43
2023-03-28T13:45:58.520Z,3.93
2023-03-28T13:48:33.983Z,4.90
2023-03-28T13:51:06.928Z,6.23
2023-03-28T13:53:47.135Z,4.93
2023-03-28T13:56:24.789Z,5.10
2023-03-28T13:58:55.273Z,4.57
2023-03-28T14:01:25.845Z,4.20
2023-03-28T14:03:55.896Z,7.27
2023-03-28T14:06:26.091Z,6.80
2023-03-28T14:08:57.657Z,5.30
2023-03-28T14:11:30.411Z,8.63
2023-03-28T14:14:06.112Z,3.80
2023-03-28T14:16:36.431Z,7.20
2023-03-28T14:19:06.531Z,5.90
2023-03-28T14:21:35.589Z,4.17
2023-03-28T14:24:07.649Z,4.47
2023-03-28T14:26:37.842Z,3.83
2023-03-28T14:29:08.268Z,5.67
2023-03-28T14:31:39.947Z,5.90
2023-03-28T14:34:21.228Z,5.67
2023-03-28T14:37:00.927Z,4.60
2023-03-28T14:39:33.701Z,6.97
2023-03-28T14:42:05.002Z,13.23
2023-03-28T14:44:38.089Z,7.80
2023-03-28T14:47:06.457Z,7.93
2023-03-28T14:49:34.633Z,9.13
2023-03-28T14:52:03.523Z,4.40
2023-03-28T14:54:35.514Z,4.33
2023-03-28T14:57:05.512Z,6.30
2023-03-28T14:59:37.184Z,3.93
2023-03-28T15:02:06.921Z,6.13
2023-03-28T15:04:35.723Z,5.27
2023-03-28T15:07:04.626Z,6.13
2023-03-28T15:09:36.115Z,5.37
2023-03-28T15:12:09.121Z,7.23
2023-03-28T15:14:41.190Z,10.40
2023-03-28T15:17:17.008Z,4.37
2023-03-28T15:19:46.772Z,7.53
2023-03-28T15:22:21.049Z,4.87
2023-03-28T15:24:51.431Z,6.90
2023-03-28T15:27:26.989Z,6.77
2023-03-28T15:29:55.871Z,5.53
2023-03-28T15:32:24.265Z,3.30
2023-03-28T15:35:00.726Z,5.37
2023-03-28T15:37:28.871Z,5.50
2023-03-28T15:40:22.504Z,6.23
2023-03-28T15:42:52.003Z,9.07
2023-03-28T15:45:29.731Z,6.97
2023-03-28T15:47:58.526Z,4.30
2023-03-28T15:50:30.859Z,5.43
2023-03-28T15:53:01.094Z,5.00
2023-03-28T15:55:32.159Z,5.77
2023-03-28T15:58:00.803Z,5.27
2023-03-28T16:00:41.790Z,9.83
2023-03-28T16:03:30.291Z,6.73
2023-03-28T16:06:10.275Z,9.07
2023-03-28T16:08:42.475Z,9.43
2023-03-28T16:11:17.597Z,8.97
2023-03-28T16:14:20.568Z,9.63
2023-03-28T16:17:11.815Z,7.60
2023-03-28T16:19:50.008Z,6.03
2023-03-28T16:22:18.915Z,7.07
2023-03-28T16:24:50.223Z,5.23
2023-03-28T16:27:20.705Z,5.23
2023-03-28T16:29:49.166Z,8.40
2023-03-28T16:32:17.690Z,5.97
2023-03-28T16:34:46.244Z,7.20
2023-03-28T16:37:14.308Z,6.70
2023-03-28T16:39:42.243Z,7.47
2023-03-28T16:42:10.752Z,5.97
2023-03-28T16:44:40.080Z,6.27
2023-03-28T16:47:08.029Z,6.93
2023-03-28T16:49:36.015Z,5.73
2023-03-28T16:52:04.800Z,8.50
2023-03-28T16:54:32.850Z,9.27
2023-03-28T16:57:01.085Z,4.70
2023-03-28T16:59:29.074Z,6.17
2023-03-28T17:01:58.394Z,7.63
2023-03-28T17:04:28.008Z,5.30
2023-03-28T17:06:57.814Z,4.53
2023-03-28T17:09:26.429Z,7.47
2023-03-28T17:11:54.516Z,6.87
2023-03-28T17:14:22.484Z,8.30
2023-03-28T17:16:50.544Z,7.57
2023-03-28T17:19:23.157Z,6.27
2023-03-28T17:21:51.552Z,7.50
2023-03-28T17:24:21.617Z,8.03
2023-03-28T17:26:49.671Z,5.50
2023-03-28T17:29:17.819Z,10.63
2023-03-28T17:31:46.083Z,8.50
2023-03-28T17:34:14.271Z,11.10
2023-03-28T17:36:44.407Z,9.70
2023-03-28T17:39:12.859Z,9.50
2023-03-28T17:41:41.521Z,8.47
2023-03-28T17:44:09.901Z,10.93
2023-03-28T17:46:38.674Z,7.70
2023-03-28T17:49:08.171Z,7.63
2023-03-28T17:51:36.240Z,7.63
2023-03-28T17:54:08.224Z,8.87
2023-03-28T17:56:36.683Z,11.37
2023-03-28T17:59:05.321Z,11.30
2023-03-28T18:01:33.363Z,7.93
2023-03-28T18:04:01.684Z,11.00
2023-03-28T18:06:48.227Z,7.37
2023-03-28T18:09:17.512Z,7.83
2023-03-28T18:11:45.733Z,9.30
2023-03-28T18:14:13.789Z,9.37
2023-03-28T18:16:44.672Z,11.97
2023-03-28T18:19:17.662Z,10.53
2023-03-28T18:21:45.842Z,9.80
2023-03-28T18:24:13.932Z,8.83
2023-03-28T18:26:43.299Z,10.27
2023-03-28T18:29:11.482Z,15.47
2023-03-28T18:31:40.483Z,11.47
2023-03-28T18:34:08.688Z,13.30
2023-03-28T18:36:40.471Z,17.97
2023-03-28T18:39:10.307Z,15.83
2023-03-28T18:41:38.969Z,23.50
2023-03-28T18:44:08.959Z,14.87
2023-03-28T18:46:37.068Z,19.80
2023-03-28T18:49:06.498Z,13.80
2023-03-28T18:51:35.283Z,14.70
2023-03-28T18:54:03.728Z,11.17
2023-03-28T18:56:32.846Z,12.50
2023-03-28T18:59:02.230Z,11.27
2023-03-28T19:01:32.179Z,15.73
2023-03-28T19:04:00.448Z,11.97
2023-03-28T19:06:28.613Z,9.40
2023-03-28T19:08:56.657Z,14.63
2023-03-28T19:11:26.102Z,13.20
2023-03-28T19:13:55.155Z,11.40
2023-03-28T19:16:23.294Z,21.47
2023-03-28T19:18:52.917Z,19.63
2023-03-28T19:21:20.935Z,18.90
2023-03-28T19:23:49.609Z,17.00
2023-03-28T19:26:18.194Z,21.00
2023-03-28T19:28:46.872Z,20.67
2023-03-28T19:31:15.424Z,22.63
2023-03-28T19:33:44.856Z,14.87
2023-03-28T19:36:14.273Z,19.63
2023-03-28T19:38:42.394Z,17.30
2023-03-28T19:41:19.522Z,17.43
2023-03-28T19:43:48.752Z,17.10
2023-03-28T19:46:21.454Z,13.53
2023-03-28T19:48:51.327Z,17.80
2023-03-28T19:51:20.622Z,12.43
2023-03-28T19:53:48.573Z,13.07
2023-03-28T19:56:18.854Z,11.70
2023-03-28T19:58:47.517Z,16.83
2023-03-28T20:01:15.831Z,15.33
2023-03-28T20:03:43.960Z,13.13
2023-03-28T20:06:14.024Z,10.43
2023-03-28T20:08:43.367Z,16.37
2023-03-28T20:11:13.682Z,15.83
2023-03-28T20:13:41.945Z,12.67
2023-03-28T20:16:11.478Z,11.37
2023-03-28T20:18:39.901Z,12.43
2023-03-28T20:21:09.737Z,16.47
2023-03-28T20:23:37.856Z,13.40
2023-03-28T20:26:19.092Z,14.40
2023-03-28T20:28:49.546Z,12.40
2023-03-28T20:31:18.285Z,11.77
2023-03-28T20:33:46.857Z,14.70
2023-03-28T20:36:15.080Z,13.87
2023-03-28T20:38:43.037Z,13.60
2023-03-28T20:41:12.036Z,14.57
2023-03-28T20:43:46.414Z,11.17
2023-03-28T20:46:18.329Z,11.70
2023-03-28T20:48:47.982Z,12.60
2023-03-28T20:51:17.522Z,11.17
2023-03-28T20:53:47.598Z,12.10
2023-03-28T20:56:16.016Z,8.50
2023-03-28T20:58:45.644Z,10.07
2023-03-28T21:01:16.634Z,11.17
2023-03-28T21:03:49.069Z,13.13
2023-03-28T21:06:18.776Z,9.50
2023-03-28T21:08:48.186Z,11.37
2023-03-28T21:11:17.153Z,11.57
2023-03-28T21:13:46.745Z,8.93
2023-03-28T21:16:15.957Z,10.87
2023-03-28T21:18:44.458Z,11.57
2023-03-28T21:21:14.302Z,14.40
2023-03-28T21:23:43.025Z,10.07
2023-03-28T21:26:12.834Z,8.80
2023-03-28T21:28:40.968Z,11.57
2023-03-28T21:31:13.182Z,12.83
2023-03-28T21:33:42.625Z,12.03
2023-03-28T21:36:12.499Z,12.53
2023-03-28T21:38:41.167Z,7.47
2023-03-28T21:41:11.183Z,7.90
2023-03-28T21:43:39.568Z,9.90
2023-03-28T21:46:08.246Z,10.10
2023-03-28T21:48:38.694Z,7.03
2023-03-28T21:51:07.372Z,7.90
2023-03-28T21:53:38.862Z,9.47
2023-03-28T21:56:08.021Z,8.70
2023-03-28T21:58:36.165Z,11.33
2023-03-28T22:01:05.150Z,9.93
2023-03-28T22:03:38.157Z,7.43
2023-03-28T22:06:07.035Z,7.97
2023-03-28T22:08:35.072Z,10.97
2023-03-28T22:11:04.395Z,8.00
2023-03-28T22:13:32.642Z,10.40
2023-03-28T22:16:00.694Z,9.40
2023-03-28T22:18:30.690Z,6.03
2023-03-28T22:21:02.538Z,8.10
2023-03-28T22:23:31.598Z,8.40
2023-03-28T22:25:59.830Z,17.27
2023-03-28T22:28:27.787Z,14.83
2023-03-28T22:30:57.229Z,15.57
2023-03-28T22:33:25.796Z,19.17
2023-03-28T22:35:53.814Z,14.90
2023-03-28T22:38:23.142Z,12.00
2023-03-28T22:40:51.200Z,16.23
2023-03-28T22:43:19.406Z,14.03
2023-03-28T22:45:47.358Z,14.60
2023-03-28T22:48:15.361Z,13.60
2023-03-28T22:50:46.299Z,13.67
2023-03-28T22:53:15.147Z,12.07
2023-03-28T22:55:45.353Z,12.17
2023-03-28T22:58:13.794Z,12.13
2023-03-28T23:00:43.655Z,15.10
2023-03-28T23:03:12.121Z,11.33
2023-03-28T23:05:40.188Z,10.87
2023-03-28T23:08:08.460Z,11.50
2023-03-28T23:10:36.456Z,9.83
2023-03-28T23:13:05.884Z,13.60
2023-03-28T23:15:33.945Z,10.80
2023-03-28T23:18:01.937Z,15.80
2023-03-28T23:20:30.104Z,13.47
2023-03-28T23:22:58.208Z,15.20
2023-03-28T23:25:26.672Z,13.20
2023-03-28T23:27:54.801Z,9.03
2023-03-28T23:30:24.102Z,13.33
2023-03-28T23:32:52.100Z,13.60
2023-03-28T23:35:20.098Z,10.97
2023-03-28T23:37:48.036Z,12.50
2023-03-28T23:40:16.184Z,12.67
2023-03-28T23:42:45.186Z,16.40
2023-03-28T23:45:14.806Z,13.40
2023-03-28T23:47:44.968Z,15.17
2023-03-28T23:50:13.027Z,17.30
2023-03-28T23:52:41.152Z,14.20
2023-03-28T23:55:09.941Z,11.93
2023-03-28T23:57:37.936Z,11.67
